createdAt,value
2023-04-17T00:01:08.884Z,85.01
2023-04-17T00:03:37.901Z,84.89
2023-04-17T00:06:06.627Z,84.02
2023-04-17T00:08:36.361Z,84.02
2023-04-17T00:11:08.418Z,84.22
2023-04-17T00:13:38.476Z,84.75
2023-04-17T00:16:06.685Z,84.48
2023-04-17T00:18:34.498Z,84.68
2023-04-17T00:21:02.248Z,84.98
2023-04-17T00:23:36.627Z,84.72
2023-04-17T04:40:21.557Z,83.67
2023-04-17T04:42:49.583Z,84.12
2023-04-17T04:45:17.448Z,84.43
2023-04-17T04:47:44.997Z,83.74
2023-04-17T04:50:12.513Z,83.81
2023-04-17T04:52:40.129Z,84.54
2023-04-17T04:55:08.537Z,84.57
2023-04-17T04:57:37.404Z,84.64
2023-04-17T05:00:08.662Z,85.35
2023-04-17T05:02:37.022Z,85.03
2023-04-17T05:05:05.265Z,84.00
2023-04-17T05:07:32.890Z,84.39
2023-04-17T05:10:00.425Z,84.65
2023-04-17T05:12:27.947Z,84.01
2023-04-17T05:14:56.888Z,83.72
2023-04-17T05:17:24.623Z,83.48
2023-04-17T05:19:52.239Z,83.32
2023-04-17T05:22:19.820Z,83.13
2023-04-17T05:24:47.484Z,82.99
2023-04-17T05:27:15.156Z,82.72
2023-04-17T05:29:42.804Z,82.51
2023-04-17T05:32:11.859Z,82.74
2023-04-17T05:34:39.623Z,82.89
2023-04-17T05:37:07.904Z,83.06
2023-04-17T05:39:36.016Z,82.79
2023-04-17T05:42:03.599Z,82.55
2023-04-17T05:44:32.093Z,82.67
2023-04-17T05:47:00.683Z,82.48
2023-04-17T05:49:30.111Z,82.41
2023-04-17T05:51:57.736Z,82.61
2023-04-17T05:54:25.428Z,82.88
2023-04-17T05:56:53.084Z,82.88
2023-04-17T05:59:21.137Z,82.87
2023-04-17T06:01:49.055Z,82.92
2023-04-17T06:04:18.253Z,82.69
2023-04-17T06:06:47.591Z,82.73
2023-04-17T06:09:15.879Z,82.18
2023-04-17T06:11:43.465Z,81.82
2023-04-17T06:14:11.273Z,82.04
2023-04-17T06:16:38.789Z,81.95
2023-04-17T06:19:06.469Z,81.58
2023-04-17T06:21:34.100Z,81.46
2023-04-17T06:24:03.006Z,81.37
2023-04-17T06:26:30.636Z,81.25
2023-04-17T06:28:58.347Z,81.42
2023-04-17T06:31:26.387Z,81.30
2023-04-17T06:33:53.975Z,81.37
2023-04-17T06:36:21.491Z,81.38
2023-04-17T06:38:49.084Z,81.33
2023-04-17T06:41:17.975Z,81.14
2023-04-17T06:43:45.549Z,81.15
2023-04-17T06:46:13.138Z,81.26
2023-04-17T06:48:40.685Z,81.32
2023-04-17T06:51:08.241Z,81.79
2023-04-17T06:53:35.972Z,81.95
2023-04-17T06:56:03.530Z,81.83
2023-04-17T06:58:33.158Z,81.75
2023-04-17T07:01:00.686Z,81.33
2023-04-17T07:03:29.612Z,81.20
2023-04-17T07:05:57.281Z,81.12
2023-04-17T07:08:24.848Z,81.72
2023-04-17T07:10:52.451Z,81.99
2023-04-17T07:13:19.983Z,81.80
2023-04-17T07:15:54.345Z,82.36
2023-04-17T07:18:22.541Z,81.35
2023-04-17T07:20:50.417Z,80.74
2023-04-17T07:23:18.394Z,81.46
2023-04-17T07:25:45.923Z,82.00
2023-04-17T07:28:14.117Z,81.05
2023-04-17T07:30:42.495Z,80.91
2023-04-17T07:33:11.469Z,80.99
2023-04-17T07:35:39.051Z,81.77
2023-04-17T07:38:06.612Z,82.27
2023-04-17T07:40:36.767Z,81.42
2023-04-17T07:43:04.478Z,81.83
2023-04-17T07:45:33.399Z,81.41
2023-04-17T07:48:01.218Z,81.36
2023-04-17T07:50:30.316Z,81.17
2023-04-17T07:52:57.895Z,81.10
2023-04-17T07:55:25.384Z,81.34
2023-04-17T07:57:53.018Z,81.31
2023-04-17T08:00:21.631Z,81.44
2023-04-17T08:02:49.474Z,81.46
2023-04-17T08:05:17.265Z,80.55
2023-04-17T08:07:46.240Z,80.19
2023-04-17T08:10:13.799Z,81.04
2023-04-17T08:12:41.457Z,81.23
2023-04-17T08:15:09.979Z,80.66
2023-04-17T08:17:37.574Z,80.93
2023-04-17T08:20:11.900Z,80.63
2023-04-17T08:22:41.174Z,79.75
2023-04-17T08:25:11.730Z,79.39
2023-04-17T08:27:40.787Z,79.29
2023-04-17T08:30:12.412Z,78.83
2023-04-17T08:32:41.921Z,78.63
2023-04-17T08:35:11.372Z,78.43
2023-04-17T08:37:39.038Z,77.86
2023-04-17T08:40:09.365Z,77.93
2023-04-17T08:42:39.552Z,77.65
2023-04-17T08:45:09.564Z,78.25
2023-04-17T08:47:37.559Z,78.40
2023-04-17T08:50:08.862Z,77.47
2023-04-17T08:52:39.890Z,77.13
2023-04-17T08:55:08.163Z,77.29
2023-04-17T08:57:36.408Z,77.52
2023-04-17T09:00:12.026Z,77.04
2023-04-17T09:02:56.365Z,76.96
2023-04-17T09:05:24.924Z,76.86
2023-04-17T09:08:08.278Z,77.05
2023-04-17T09:10:37.280Z,76.99
2023-04-17T09:13:05.214Z,76.40
2023-04-17T09:15:35.169Z,76.60
2023-04-17T09:18:03.467Z,76.10
2023-04-17T09:20:31.156Z,77.20
2023-04-17T09:23:01.872Z,75.55
2023-04-17T09:25:30.276Z,75.16
2023-04-17T09:28:11.479Z,74.97
2023-04-17T09:30:41.202Z,74.84
2023-04-17T09:33:10.402Z,75.06
2023-04-17T09:35:40.182Z,75.06
2023-04-17T09:38:08.053Z,75.68
2023-04-17T09:40:40.638Z,75.04
2023-04-17T09:43:10.395Z,73.51
2023-04-17T09:45:42.919Z,72.93
2023-04-17T09:48:12.852Z,73.06
2023-04-17T09:50:41.233Z,73.10
2023-04-17T09:53:09.729Z,72.86
2023-04-17T09:55:38.048Z,73.09
2023-04-17T09:58:07.936Z,73.36
2023-04-17T10:00:37.737Z,73.66
2023-04-17T10:03:08.416Z,73.94
2023-04-17T10:05:36.720Z,73.88
2023-04-17T10:08:04.985Z,74.08
2023-04-17T10:10:36.581Z,74.89
2023-04-17T10:13:08.293Z,74.09
2023-04-17T10:15:36.711Z,73.99
2023-04-17T10:18:23.631Z,73.65
2023-04-17T10:20:53.227Z,73.21
2023-04-17T10:23:32.789Z,73.17
2023-04-17T10:26:43.035Z,73.59
2023-04-17T10:29:12.666Z,73.16
2023-04-17T10:32:20.356Z,73.01
2023-04-17T10:34:49.564Z,73.43
2023-04-17T10:37:17.136Z,73.40
2023-04-17T10:39:56.987Z,72.57
2023-04-17T10:42:25.657Z,72.79
2023-04-17T10:44:59.392Z,72.81
2023-04-17T10:47:33.449Z,72.83
2023-04-17T10:50:03.907Z,72.42
2023-04-17T16:59:37.684Z,74.97
2023-04-17T17:02:05.259Z,74.83
2023-04-17T17:12:55.187Z,74.13
2023-04-17T17:15:24.349Z,74.53
2023-04-17T17:17:51.842Z,75.53
2023-04-17T17:20:20.254Z,75.13
2023-04-17T17:22:47.736Z,75.08
2023-04-17T17:25:15.226Z,75.00
2023-04-17T17:27:42.748Z,74.81
2023-04-17T17:30:10.892Z,75.11
2023-04-17T17:32:39.801Z,75.37
2023-04-17T17:35:08.489Z,75.06
2023-04-17T17:37:35.996Z,74.69
2023-04-17T17:40:04.299Z,74.88
2023-04-17T17:42:31.952Z,75.17
2023-04-17T17:44:59.480Z,75.01
2023-04-17T17:47:27.046Z,75.31
2023-04-17T17:49:55.919Z,75.22
2023-04-17T17:52:23.468Z,75.38
2023-04-17T17:54:51.029Z,75.54
2023-04-17T17:57:18.692Z,75.63
2023-04-17T17:59:46.375Z,75.82
2023-04-17T18:02:14.004Z,76.53
2023-04-17T18:04:41.918Z,76.91
2023-04-17T18:07:10.900Z,76.19
2023-04-17T18:09:38.406Z,74.74
2023-04-17T18:12:06.867Z,73.77
2023-04-17T18:14:34.373Z,73.15
2023-04-17T18:17:01.883Z,73.06
2023-04-17T18:19:29.420Z,73.25
2023-04-17T18:21:57.141Z,72.76
2023-04-17T18:24:26.139Z,72.28
2023-04-17T18:26:53.620Z,72.02
2023-04-17T18:29:21.151Z,72.12
2023-04-17T18:31:51.066Z,72.10
2023-04-17T18:34:18.819Z,72.31
2023-04-17T18:36:46.338Z,72.20
2023-04-17T18:39:14.670Z,72.25
2023-04-17T18:41:43.520Z,72.42
2023-04-17T18:44:11.253Z,72.23
2023-04-17T18:46:38.912Z,72.96
2023-04-17T18:49:06.488Z,72.77
2023-04-17T18:51:34.004Z,72.95
2023-04-17T18:54:02.665Z,72.80
2023-04-17T18:56:30.265Z,72.75
2023-04-17T18:58:59.140Z,72.56
2023-04-17T19:01:26.679Z,72.52
2023-04-17T19:03:54.203Z,72.65
2023-04-17T19:06:21.693Z,73.02
2023-04-17T19:08:49.195Z,73.76
2023-04-17T19:11:16.721Z,75.47
2023-04-17T19:13:45.021Z,74.23
2023-04-17T19:16:13.950Z,72.78
2023-04-17T19:18:41.456Z,72.50
2023-04-17T19:21:08.999Z,72.25
2023-04-17T19:23:37.486Z,72.38
2023-04-17T19:26:05.059Z,72.33
2023-04-17T19:28:32.571Z,72.46
2023-04-17T19:31:00.851Z,72.79
2023-04-17T19:33:29.882Z,73.05
2023-04-17T19:35:58.281Z,72.89
2023-04-17T19:38:27.758Z,72.89
2023-04-17T19:41:14.394Z,73.29
2023-04-17T19:43:42.422Z,72.79
2023-04-17T19:46:10.137Z,72.76
2023-04-17T19:48:39.118Z,73.04
2023-04-17T19:51:07.302Z,73.11
2023-04-17T19:53:35.912Z,73.19
2023-04-17T19:56:05.748Z,73.41
2023-04-17T19:58:35.316Z,73.54
2023-04-17T20:01:03.254Z,73.74
2023-04-17T20:03:31.774Z,73.79
2023-04-17T20:06:01.067Z,74.04
2023-04-17T20:08:28.636Z,74.22
2023-04-17T20:10:56.123Z,73.91
2023-04-17T20:13:23.616Z,74.13
2023-04-17T20:15:51.177Z,73.99
2023-04-17T20:18:18.795Z,73.89
2023-04-17T20:20:46.594Z,74.17
2023-04-17T20:23:15.458Z,76.65
2023-04-17T20:25:42.969Z,76.21
2023-04-17T20:28:10.668Z,76.33
2023-04-17T20:30:38.253Z,77.16
2023-04-17T20:33:05.944Z,76.34
2023-04-17T20:35:33.548Z,76.70
2023-04-17T20:38:01.104Z,75.06
2023-04-17T20:40:30.151Z,74.55
2023-04-17T20:42:57.723Z,74.20
2023-04-17T20:45:25.342Z,73.66
2023-04-17T20:47:57.071Z,73.45
2023-04-17T20:50:25.374Z,73.72
2023-04-17T20:52:52.860Z,75.20
2023-04-17T20:55:20.843Z,76.72
2023-04-17T20:57:49.715Z,77.84
2023-04-17T21:00:17.655Z,76.04
2023-04-17T21:02:45.889Z,74.83
2023-04-17T21:05:13.454Z,76.00
2023-04-17T21:07:40.968Z,75.62
2023-04-17T21:10:09.411Z,75.91
2023-04-17T21:12:36.955Z,75.14
2023-04-17T21:15:06.749Z,76.06
2023-04-17T21:17:34.409Z,75.35
2023-04-17T21:20:01.917Z,76.50
2023-04-17T21:22:29.415Z,75.87
2023-04-17T21:24:56.930Z,76.44
2023-04-17T21:27:24.556Z,77.05
2023-04-17T21:29:52.102Z,76.23
2023-04-17T21:32:21.109Z,75.20
2023-04-17T21:34:48.649Z,75.12
2023-04-17T21:37:16.148Z,75.43
2023-04-17T21:39:43.696Z,76.07
2023-04-17T21:42:11.257Z,75.04
2023-04-17T21:44:38.768Z,76.61
2023-04-17T21:47:06.390Z,75.90
2023-04-17T21:49:35.301Z,77.18
2023-04-17T21:52:02.827Z,75.95
2023-04-17T21:54:30.356Z,75.65
2023-04-17T21:56:57.897Z,76.94
2023-04-17T21:59:25.448Z,76.54
2023-04-17T22:01:52.996Z,75.50
2023-04-17T22:04:20.568Z,75.86
2023-04-17T22:06:51.632Z,77.68
2023-04-17T22:09:20.432Z,78.28
2023-04-17T22:11:48.577Z,76.39
2023-04-17T22:14:16.726Z,76.78
2023-04-17T22:16:44.551Z,78.35
2023-04-17T22:19:12.103Z,79.10
2023-04-17T22:21:39.634Z,78.72
2023-04-17T22:24:09.634Z,76.75
2023-04-17T22:26:37.123Z,78.73
2023-04-17T22:29:04.648Z,79.27
2023-04-17T22:31:32.301Z,79.57
2023-04-17T22:33:59.957Z,77.41
2023-04-17T22:36:27.448Z,79.00
2023-04-17T22:38:55.070Z,77.90
2023-04-17T22:41:23.893Z,75.65
2023-04-17T22:43:51.459Z,76.90
2023-04-17T22:46:19.041Z,75.94
2023-04-17T22:48:47.049Z,75.42
2023-04-17T22:51:15.042Z,77.55
2023-04-17T22:53:43.876Z,78.98
2023-04-17T22:56:13.694Z,80.45
2023-04-17T22:58:42.544Z,81.34
2023-04-17T23:01:10.102Z,80.42
2023-04-17T23:03:37.650Z,80.96
2023-04-17T23:06:07.387Z,81.32
2023-04-17T23:08:34.873Z,80.47
2023-04-17T23:11:03.442Z,80.54
2023-04-17T23:13:31.607Z,80.90
2023-04-17T23:16:00.774Z,81.12
2023-04-17T23:18:28.320Z,81.71
2023-04-17T23:20:55.844Z,81.10
2023-04-17T23:23:23.360Z,80.82
2023-04-17T23:25:50.941Z,81.28
2023-04-17T23:28:18.503Z,80.30
2023-04-17T23:30:46.083Z,80.41
2023-04-17T23:33:15.086Z,81.46
2023-04-17T23:35:42.719Z,82.01
2023-04-17T23:38:10.407Z,80.14
2023-04-17T23:40:38.131Z,80.40
2023-04-17T23:43:06.099Z,77.87
2023-04-17T23:45:33.776Z,76.31
2023-04-17T23:48:01.408Z,77.23
2023-04-17T23:50:30.560Z,75.77
2023-04-17T23:52:58.159Z,78.96
2023-04-17T23:55:26.973Z,77.41
2023-04-17T23:57:54.955Z,76.08
